Portada
METAR-TAF:

METAR-TAF

Aeropuertos :

Aeropuerto de Londres-Heathrow

Londres-Heathrow, Inglaterra

latitud: 51-29N, longitud: 000-27W, altitud: 24 m

Observación

El informe se hizo hace 12 minutos, a las 06:20 UTC
Viento 4 kt del oeste-noroeste, variando entre oeste y norte-noroeste
Temperatura 18°C
Humedad 83%
Presión 1016 hPa
Visibilidad 10 km o más

METAR: EGLL 220620Z AUTO 29004KT 260V330 9999 NCD 18/15 Q1016 NOSIG

Hora: 07:32 (06:32 UTC)

Pronóstico

El informe se hizo hace 1 hora y 30 minutos, a las 05:02 UTC
Pronóstico válido del 22 a las 06 UTC al 23 a las 12 UTC
Viento 5 kt del oeste
Visibilidad 10 km o más
Escasas nubes a una altura de 4500 ft
Probabilidad 30%
del 23 a las 02 UTC al 23 a las 07 UTC
Visibilidad: 8000 m

TAF: EGLL 220502Z 2206/2312 28005KT 9999 FEW045 PROB30 2302/2307 8000

Observaciones y pronósticos meteorológicos de más de 4000 aeropuertos (mensajes METAR y TAF).

Los puntos amarillos y rojos representan las estaciones disponibles.

Ponga el ratón en el punto deseado para ver el nombre de la estación.

Haga clic para ver las observaciones y los pronósticos meteorológicos.

Para cambiar el mapa : haga clic en los botones verdes con una cruz de color negro para hacer un zoom, en el botón verde con un guión para alejar o en las flechas verdes para mapas adyacentes.


METAR-TAF: